Gold Beach, OR

4:45 AM PST on February 08, 2016 (GMT -0800)
KF7MWX | | Change Station
CLOSE
Current Station
Personal Weather Station
Location: Gold Beach, OR
Elevation: 56 ft
Nearby Weather Stations

Elev 56 ft 42.41 °N, 124.42 °W | Updated 7 seconds ago

Clear
Clear
52.9 °F
Feels Like 52.9 °F
N
1.6
Wind Variable Wind from SE
Gusts 6.0 mph

Today
High -- | Low -- °F
--% Chance of Precip.
Yesterday
High -- | Low -- °F
Precip. -- in
Pressure 30.24 in
Visibility 10.0 miles
Clouds Clear
Dew Point 50 °F
Humidity 90%
Rainfall 0.00 in
Snow Depth Not available.
7:23 AM 5:40 PM
Waning Crescent, 0% visible
METAR KBOK 081156Z AUTO 06007G16KT 10SM CLR 21/04 A3022 RMK AO2 SLP240 7//// T02110044 10222 20211 56012
Pressure 30.24 in
Visibility 10.0 miles
Clouds Clear
Dew Point 50 °F
Humidity 90%
Rainfall 0.00 in
Snow Depth Not available.
7:23 AM 5:40 PM
Waning Crescent, 0% visible
METAR KBOK 081156Z AUTO 06007G16KT 10SM CLR 21/04 A3022 RMK AO2 SLP240 7//// T02110044 10222 20211 56012

10-Day Weather Forecast

Almanac

Astronomy

Feb. 08, 2016 Rise Set
Actual Time
Civil Twilight
Nautical Twilight
Astronomical Twilight
Moon
Length of Visible Light
Length of Day
Tomorrow will be .
, % of the Moon is Illuminated

Today's Extremes

State Highs State Lows

Community

WunderPhotos

Upload Photos

1,891,428 photos uploaded!

WunderBlog® & News

Nearby

Air Quality

  Air Quality AQ Index Pollutant
Not available.

Snow Depth

Station Depth Elevation

Earthquake Activity

City Distance Mag. Time & Date
Minimum magnitude displayed is 2.5.

Coastal Water Temperatures

Place Temperature

Stations

Nearby Weather Stations

Station Location Temp. Windchill Dew Point Humidity Wind Precip. Elev Updated Type
                   

Watches & Warnings

There are currently no watches in effect.